PWSweather.com
Personal Weather Stations
Station Observations
WEATHERMOR
MorskoSI

MorskoSI

Lat: 46.075894, Lon: 13.634103

Elevation: 149

Station Type: WS2350

http://vp-morskovreme.com

High Low Average
Temperature 46.2°F7.9°C 35.2°F1.8°C 40.1°F4.5°C
Dew Point 32.0°F0.0°C 25.0°F-3.9°C 27.4°F-2.6°C
Winds 10.2 mph 16.4 kmh 0.3 mph 0.5 kmh 5.0 mph NE8.0 kmh NE
Wind Gusts 18.6 mph29.9 kmh 1.6 mph2.6 kmh 11.0 mph17.7 kmh
Humidity 79% 46% 61%
Pressure 29.96 in1014.6 mb 29.90 in1012.5 mb -
Precipitation 0.00 in0.0 mm - -
Hour Temp Dew Point Humidity Winds Wind Gusts Pressure Precip Precip Rate Daily Precip Total
12:00 AM 37.9°F3.3°C 32.0°F0.0°C 79% 6.3 mph N10.1 kmh N 11.6 mph18.7 kmh 29.93 in1013.5 mb 0.00 in0.0 mm 0.00 in0.0 mm 0.00 in0.0 mm
12:10 AM 37.8°F3.2°C 31.8°F-0.1°C 79% 4.5 mph NNE7.2 kmh NNE 8.9 mph14.3 kmh 29.93 in1013.5 mb 0.00 in0.0 mm 0.00 in0.0 mm 0.00 in0.0 mm
12:20 AM 37.8°F3.2°C 31.8°F-0.1°C 79% 5.5 mph N8.9 kmh N 9.6 mph15.4 kmh 29.93 in1013.5 mb 0.00 in0.0 mm 0.00 in0.0 mm 0.00 in0.0 mm
12:30 AM 37.6°F3.1°C 31.7°F-0.2°C 79% 5.1 mph NNE8.2 kmh NNE 9.8 mph15.8 kmh 29.93 in1013.5 mb 0.00 in0.0 mm 0.00 in0.0 mm 0.00 in0.0 mm
12:40 AM 37.8°F3.2°C 31.8°F-0.1°C 79% 5.7 mph NNE9.2 kmh NNE 10.7 mph17.2 kmh 29.94 in1013.9 mb 0.00 in0.0 mm 0.00 in0.0 mm 0.00 in0.0 mm
12:50 AM 38.1°F3.4°C 31.5°F-0.3°C 77% 8.1 mph N13.0 kmh N 17.0 mph27.4 kmh 29.94 in1013.9 mb 0.00 in0.0 mm 0.00 in0.0 mm 0.00 in0.0 mm
01:00 AM 38.1°F3.4°C 31.5°F-0.3°C 77% 5.3 mph N8.5 kmh N 10.5 mph16.9 kmh 29.94 in1013.9 mb 0.00 in0.0 mm 0.00 in0.0 mm 0.00 in0.0 mm
01:10 AM 37.9°F3.3°C 31.7°F-0.2°C 78% 6.6 mph N10.6 kmh N 11.0 mph17.7 kmh 29.93 in1013.5 mb 0.00 in0.0 mm 0.00 in0.0 mm 0.00 in0.0 mm
01:20 AM 38.1°F3.4°C 31.2°F-0.4°C 76% 6.9 mph NNE11.1 kmh NNE 12.3 mph19.8 kmh 29.94 in1013.9 mb 0.00 in0.0 mm 0.00 in0.0 mm 0.00 in0.0 mm
01:30 AM 38.1°F3.4°C 31.2°F-0.4°C 76% 6.6 mph N10.6 kmh N 14.1 mph22.7 kmh 29.94 in1013.9 mb 0.00 in0.0 mm 0.00 in0.0 mm 0.00 in0.0 mm
01:40 AM 38.3°F3.5°C 31.1°F-0.5°C 75% 6.0 mph NNE9.7 kmh NNE 11.4 mph18.3 kmh 29.93 in1013.5 mb 0.00 in0.0 mm 0.00 in0.0 mm 0.00 in0.0 mm
01:50 AM 38.5°F3.6°C 30.9°F-0.6°C 74% 4.9 mph NNE7.9 kmh NNE 9.2 mph14.8 kmh 29.94 in1013.9 mb 0.00 in0.0 mm 0.00 in0.0 mm 0.00 in0.0 mm
02:00 AM 38.8°F3.8°C 30.9°F-0.6°C 73% 6.4 mph NNE10.3 kmh NNE 15.9 mph25.6 kmh 29.93 in1013.5 mb 0.00 in0.0 mm 0.00 in0.0 mm 0.00 in0.0 mm
02:10 AM 39.6°F4.2°C 30.6°F-0.8°C 70% 7.1 mph NNE11.4 kmh NNE 15.0 mph24.1 kmh 29.93 in1013.5 mb 0.00 in0.0 mm 0.00 in0.0 mm 0.00 in0.0 mm
02:20 AM 39.9°F4.4°C 30.6°F-0.8°C 69% 6.8 mph NNE10.9 kmh NNE 16.1 mph25.9 kmh 29.93 in1013.5 mb 0.00 in0.0 mm 0.00 in0.0 mm 0.00 in0.0 mm
02:30 AM 40.1°F4.5°C 30.0°F-1.1°C 67% 7.0 mph NNE11.3 kmh NNE 13.9 mph22.4 kmh 29.93 in1013.5 mb 0.00 in0.0 mm 0.00 in0.0 mm 0.00 in0.0 mm
02:40 AM 40.3°F4.6°C 30.2°F-1.0°C 67% 6.6 mph NNE10.6 kmh NNE 12.8 mph20.6 kmh 29.94 in1013.9 mb 0.00 in0.0 mm 0.00 in0.0 mm 0.00 in0.0 mm
02:50 AM 40.1°F4.5°C 29.6°F-1.3°C 66% 7.5 mph NNE12.1 kmh NNE 11.9 mph19.2 kmh 29.93 in1013.5 mb 0.00 in0.0 mm 0.00 in0.0 mm 0.00 in0.0 mm
03:00 AM 40.3°F4.6°C 29.1°F-1.6°C 64% 10.2 mph NNE16.4 kmh NNE 18.1 mph29.1 kmh 29.94 in1013.9 mb 0.00 in0.0 mm 0.00 in0.0 mm 0.00 in0.0 mm
03:10 AM 40.6°F4.8°C 29.4°F-1.4°C 64% 9.4 mph N15.1 kmh N 17.0 mph27.4 kmh 29.93 in1013.5 mb 0.00 in0.0 mm 0.00 in0.0 mm 0.00 in0.0 mm
03:20 AM 40.3°F4.6°C 29.1°F-1.6°C 64% 7.9 mph NNE12.7 kmh NNE 14.8 mph23.8 kmh 29.93 in1013.5 mb 0.00 in0.0 mm 0.00 in0.0 mm 0.00 in0.0 mm
03:30 AM 40.1°F4.5°C 28.9°F-1.7°C 64% 9.8 mph N15.8 kmh N 16.1 mph25.9 kmh 29.93 in1013.5 mb 0.00 in0.0 mm 0.00 in0.0 mm 0.00 in0.0 mm
03:40 AM 40.1°F4.5°C 28.5°F-1.9°C 63% 9.0 mph NNE14.5 kmh NNE 18.6 mph29.9 kmh 29.93 in1013.5 mb 0.00 in0.0 mm 0.00 in0.0 mm 0.00 in0.0 mm
03:50 AM 40.1°F4.5°C 28.5°F-1.9°C 63% 8.8 mph N14.2 kmh N 17.2 mph27.7 kmh 29.93 in1013.5 mb 0.00 in0.0 mm 0.00 in0.0 mm 0.00 in0.0 mm
04:00 AM 40.3°F4.6°C 28.7°F-1.8°C 63% 7.8 mph N12.6 kmh N 16.8 mph27.0 kmh 29.93 in1013.5 mb 0.00 in0.0 mm 0.00 in0.0 mm 0.00 in0.0 mm
04:10 AM 39.9°F4.4°C 28.3°F-2.1°C 63% 6.1 mph NNE9.8 kmh NNE 10.3 mph16.6 kmh 29.93 in1013.5 mb 0.00 in0.0 mm 0.00 in0.0 mm 0.00 in0.0 mm
04:20 AM 39.7°F4.3°C 28.2°F-2.1°C 63% 5.7 mph N9.2 kmh N 10.3 mph16.6 kmh 29.93 in1013.5 mb 0.00 in0.0 mm 0.00 in0.0 mm 0.00 in0.0 mm
04:30 AM 39.7°F4.3°C 28.5°F-1.9°C 64% 4.6 mph NNE7.4 kmh NNE 8.9 mph14.3 kmh 29.93 in1013.5 mb 0.00 in0.0 mm 0.00 in0.0 mm 0.00 in0.0 mm
04:40 AM 39.6°F4.2°C 28.4°F-2.0°C 64% 2.8 mph NNE4.5 kmh NNE 8.1 mph13.0 kmh 29.93 in1013.5 mb 0.00 in0.0 mm 0.00 in0.0 mm 0.00 in0.0 mm
04:50 AM 39.4°F4.1°C 28.2°F-2.1°C 64% 4.7 mph NNE7.6 kmh NNE 9.8 mph15.8 kmh 29.93 in1013.5 mb 0.00 in0.0 mm 0.00 in0.0 mm 0.00 in0.0 mm
05:00 AM 39.7°F4.3°C 28.2°F-2.1°C 63% 4.1 mph NNE6.6 kmh NNE 13.0 mph20.9 kmh 29.94 in1013.9 mb 0.00 in0.0 mm 0.00 in0.0 mm 0.00 in0.0 mm
05:10 AM 39.7°F4.3°C 28.2°F-2.1°C 63% 4.1 mph NNE6.6 kmh NNE 8.5 mph13.7 kmh 29.93 in1013.5 mb 0.00 in0.0 mm 0.00 in0.0 mm 0.00 in0.0 mm
05:20 AM 39.6°F4.2°C 27.6°F-2.4°C 62% 5.7 mph NE9.2 kmh NE 18.3 mph29.5 kmh 29.93 in1013.5 mb 0.00 in0.0 mm 0.00 in0.0 mm 0.00 in0.0 mm
05:30 AM 39.9°F4.4°C 27.9°F-2.3°C 62% 7.0 mph N11.3 kmh N 14.3 mph23.0 kmh 29.94 in1013.9 mb 0.00 in0.0 mm 0.00 in0.0 mm 0.00 in0.0 mm
05:40 AM 40.1°F4.5°C 27.7°F-2.4°C 61% 7.8 mph NNE12.6 kmh NNE 15.2 mph24.5 kmh 29.93 in1013.5 mb 0.00 in0.0 mm 0.00 in0.0 mm 0.00 in0.0 mm
05:50 AM 40.1°F4.5°C 27.3°F-2.6°C 60% 6.8 mph NNE10.9 kmh NNE 13.6 mph21.9 kmh 29.94 in1013.9 mb 0.00 in0.0 mm 0.00 in0.0 mm 0.00 in0.0 mm
06:00 AM 40.3°F4.6°C 27.1°F-2.7°C 59% 7.4 mph NNE11.9 kmh NNE 13.4 mph21.6 kmh 29.94 in1013.9 mb 0.00 in0.0 mm 0.00 in0.0 mm 0.00 in0.0 mm
06:10 AM 40.3°F4.6°C 27.1°F-2.7°C 59% 7.5 mph NNE12.1 kmh NNE 14.1 mph22.7 kmh 29.94 in1013.9 mb 0.00 in0.0 mm 0.00 in0.0 mm 0.00 in0.0 mm
06:20 AM 40.3°F4.6°C 27.1°F-2.7°C 59% 7.3 mph NNE11.7 kmh NNE 15.9 mph25.6 kmh 29.94 in1013.9 mb 0.00 in0.0 mm 0.00 in0.0 mm 0.00 in0.0 mm
06:30 AM 40.3°F4.6°C 26.7°F-2.9°C 58% 8.1 mph N13.0 kmh N 18.6 mph29.9 kmh 29.94 in1013.9 mb 0.00 in0.0 mm 0.00 in0.0 mm 0.00 in0.0 mm
06:40 AM 40.5°F4.7°C 26.8°F-2.9°C 58% 7.4 mph NNE11.9 kmh NNE 17.4 mph28.0 kmh 29.94 in1013.9 mb 0.00 in0.0 mm 0.00 in0.0 mm 0.00 in0.0 mm
06:50 AM 40.3°F4.6°C 26.7°F-2.9°C 58% 8.0 mph NNE12.9 kmh NNE 16.3 mph26.2 kmh 29.95 in1014.2 mb 0.00 in0.0 mm 0.00 in0.0 mm 0.00 in0.0 mm
07:00 AM 40.3°F4.6°C 26.7°F-2.9°C 58% 6.6 mph NNE10.6 kmh NNE 16.8 mph27.0 kmh 29.95 in1014.2 mb 0.00 in0.0 mm 0.00 in0.0 mm 0.00 in0.0 mm
07:10 AM 40.3°F4.6°C 26.7°F-2.9°C 58% 6.8 mph N10.9 kmh N 18.3 mph29.5 kmh 29.95 in1014.2 mb 0.00 in0.0 mm 0.00 in0.0 mm 0.00 in0.0 mm
07:20 AM 40.3°F4.6°C 26.7°F-2.9°C 58% 6.8 mph NNE10.9 kmh NNE 18.1 mph29.1 kmh 29.95 in1014.2 mb 0.00 in0.0 mm 0.00 in0.0 mm 0.00 in0.0 mm
07:30 AM 40.1°F4.5°C 26.5°F-3.1°C 58% 5.9 mph NNE9.5 kmh NNE 13.2 mph21.2 kmh 29.96 in1014.6 mb 0.00 in0.0 mm 0.00 in0.0 mm 0.00 in0.0 mm
07:40 AM 40.1°F4.5°C 26.5°F-3.1°C 58% 5.8 mph NNE9.3 kmh NNE 12.5 mph20.1 kmh 29.96 in1014.6 mb 0.00 in0.0 mm 0.00 in0.0 mm 0.00 in0.0 mm
07:50 AM 40.1°F4.5°C 26.5°F-3.1°C 58% 8.0 mph NNE12.9 kmh NNE 15.7 mph25.3 kmh 29.96 in1014.6 mb 0.00 in0.0 mm 0.00 in0.0 mm 0.00 in0.0 mm
08:00 AM 40.3°F4.6°C 26.2°F-3.2°C 57% 9.7 mph N15.6 kmh N 16.6 mph26.7 kmh 29.96 in1014.6 mb 0.00 in0.0 mm 0.00 in0.0 mm 0.00 in0.0 mm
08:10 AM 40.3°F4.6°C 26.2°F-3.2°C 57% 8.6 mph N13.8 kmh N 14.5 mph23.3 kmh 29.96 in1014.6 mb 0.00 in0.0 mm 0.00 in0.0 mm 0.00 in0.0 mm
08:20 AM 40.3°F4.6°C 26.2°F-3.2°C 57% 8.2 mph NNE13.2 kmh NNE 14.8 mph23.8 kmh 29.96 in1014.6 mb 0.00 in0.0 mm 0.00 in0.0 mm 0.00 in0.0 mm
08:30 AM 40.3°F4.6°C 26.2°F-3.2°C 57% 8.1 mph N13.0 kmh N 13.4 mph21.6 kmh 29.96 in1014.6 mb 0.00 in0.0 mm 0.00 in0.0 mm 0.00 in0.0 mm
08:40 AM 40.3°F4.6°C 26.2°F-3.2°C 57% 7.7 mph N12.4 kmh N 14.1 mph22.7 kmh 29.96 in1014.6 mb 0.00 in0.0 mm 0.00 in0.0 mm 0.00 in0.0 mm
08:50 AM 40.3°F4.6°C 26.2°F-3.2°C 57% 7.2 mph NNE11.6 kmh NNE 13.4 mph21.6 kmh 29.96 in1014.6 mb 0.00 in0.0 mm 0.00 in0.0 mm 0.00 in0.0 mm
09:00 AM 40.6°F4.8°C 26.6°F-3.0°C 57% 7.5 mph NNE12.1 kmh NNE 15.7 mph25.3 kmh 29.96 in1014.6 mb 0.00 in0.0 mm 0.00 in0.0 mm 0.00 in0.0 mm
09:10 AM 40.6°F4.8°C 26.6°F-3.0°C 57% 9.2 mph N14.8 kmh N 17.7 mph28.5 kmh 29.96 in1014.6 mb 0.00 in0.0 mm 0.00 in0.0 mm 0.00 in0.0 mm
09:20 AM 40.6°F4.8°C 26.6°F-3.0°C 57% 7.7 mph N12.4 kmh N 14.1 mph22.7 kmh 29.96 in1014.6 mb 0.00 in0.0 mm 0.00 in0.0 mm 0.00 in0.0 mm
09:30 AM 40.8°F4.9°C 26.7°F-2.9°C 57% 7.5 mph N12.1 kmh N 16.8 mph27.0 kmh 29.96 in1014.6 mb 0.00 in0.0 mm 0.00 in0.0 mm 0.00 in0.0 mm
09:40 AM 40.8°F4.9°C 27.2°F-2.7°C 58% 6.3 mph N10.1 kmh N 11.4 mph18.3 kmh 29.96 in1014.6 mb 0.00 in0.0 mm 0.00 in0.0 mm 0.00 in0.0 mm
09:50 AM 40.8°F4.9°C 26.7°F-2.9°C 57% 7.1 mph NNE11.4 kmh NNE 14.1 mph22.7 kmh 29.96 in1014.6 mb 0.00 in0.0 mm 0.00 in0.0 mm 0.00 in0.0 mm
10:00 AM 40.8°F4.9°C 26.7°F-2.9°C 57% 6.7 mph NNE10.8 kmh NNE 10.5 mph16.9 kmh 29.96 in1014.6 mb 0.00 in0.0 mm 0.00 in0.0 mm 0.00 in0.0 mm
10:10 AM 41.2°F5.1°C 27.1°F-2.7°C 57% 7.6 mph NNE12.2 kmh NNE 14.3 mph23.0 kmh 29.96 in1014.6 mb 0.00 in0.0 mm 0.00 in0.0 mm 0.00 in0.0 mm
10:20 AM 41.4°F5.2°C 26.8°F-2.9°C 56% 8.2 mph NNE13.2 kmh NNE 17.2 mph27.7 kmh 29.96 in1014.6 mb 0.00 in0.0 mm 0.00 in0.0 mm 0.00 in0.0 mm
10:30 AM 41.5°F5.3°C 27.0°F-2.8°C 56% 7.0 mph NNE11.3 kmh NNE 13.2 mph21.2 kmh 29.96 in1014.6 mb 0.00 in0.0 mm 0.00 in0.0 mm 0.00 in0.0 mm
10:40 AM 41.7°F5.4°C 27.2°F-2.7°C 56% 4.9 mph NNE7.9 kmh NNE 12.5 mph20.1 kmh 29.96 in1014.6 mb 0.00 in0.0 mm 0.00 in0.0 mm 0.00 in0.0 mm
10:50 AM 41.9°F5.5°C 26.9°F-2.8°C 55% 6.3 mph NNE10.1 kmh NNE 13.2 mph21.2 kmh 29.96 in1014.6 mb 0.00 in0.0 mm 0.00 in0.0 mm 0.00 in0.0 mm
11:00 AM 42.1°F5.6°C 27.1°F-2.7°C 55% 6.2 mph NNE10.0 kmh NNE 14.8 mph23.8 kmh 29.96 in1014.6 mb 0.00 in0.0 mm 0.00 in0.0 mm 0.00 in0.0 mm
11:10 AM 42.3°F5.7°C 27.2°F-2.7°C 55% 6.9 mph N11.1 kmh N 15.2 mph24.5 kmh 29.96 in1014.6 mb 0.00 in0.0 mm 0.00 in0.0 mm 0.00 in0.0 mm
11:20 AM 42.4°F5.8°C 27.0°F-2.8°C 54% 5.9 mph NNE9.5 kmh NNE 14.1 mph22.7 kmh 29.96 in1014.6 mb 0.00 in0.0 mm 0.00 in0.0 mm 0.00 in0.0 mm
11:30 AM 42.6°F5.9°C 27.1°F-2.7°C 54% 6.4 mph N10.3 kmh N 11.4 mph18.3 kmh 29.96 in1014.6 mb 0.00 in0.0 mm 0.00 in0.0 mm 0.00 in0.0 mm
11:40 AM 42.6°F5.9°C 27.6°F-2.4°C 55% 6.2 mph N10.0 kmh N 10.5 mph16.9 kmh 29.96 in1014.6 mb 0.00 in0.0 mm 0.00 in0.0 mm 0.00 in0.0 mm
11:50 AM 42.6°F5.9°C 27.1°F-2.7°C 54% 6.8 mph N10.9 kmh N 12.1 mph19.5 kmh 29.95 in1014.2 mb 0.00 in0.0 mm 0.00 in0.0 mm 0.00 in0.0 mm
12:00 PM 43.0°F6.1°C 27.5°F-2.5°C 54% 6.4 mph N10.3 kmh N 11.4 mph18.3 kmh 29.95 in1014.2 mb 0.00 in0.0 mm 0.00 in0.0 mm 0.00 in0.0 mm
12:10 PM 43.0°F6.1°C 27.5°F-2.5°C 54% 6.7 mph N10.8 kmh N 12.3 mph19.8 kmh 29.95 in1014.2 mb 0.00 in0.0 mm 0.00 in0.0 mm 0.00 in0.0 mm
12:20 PM 43.2°F6.2°C 27.6°F-2.4°C 54% 4.9 mph N7.9 kmh N 8.7 mph14.0 kmh 29.95 in1014.2 mb 0.00 in0.0 mm 0.00 in0.0 mm 0.00 in0.0 mm
12:30 PM 43.3°F6.3°C 27.8°F-2.3°C 54% 5.9 mph N9.5 kmh N 9.2 mph14.8 kmh 29.94 in1013.9 mb 0.00 in0.0 mm 0.00 in0.0 mm 0.00 in0.0 mm
12:40 PM 43.7°F6.5°C 27.7°F-2.4°C 53% 4.8 mph N7.7 kmh N 10.3 mph16.6 kmh 29.94 in1013.9 mb 0.00 in0.0 mm 0.00 in0.0 mm 0.00 in0.0 mm
12:50 PM 43.9°F6.6°C 27.4°F-2.6°C 52% 6.4 mph N10.3 kmh N 11.0 mph17.7 kmh 29.93 in1013.5 mb 0.00 in0.0 mm 0.00 in0.0 mm 0.00 in0.0 mm
01:00 PM 44.2°F6.8°C 27.2°F-2.7°C 51% 4.9 mph N7.9 kmh N 8.9 mph14.3 kmh 29.93 in1013.5 mb 0.00 in0.0 mm 0.00 in0.0 mm 0.00 in0.0 mm
01:10 PM 44.8°F7.1°C 28.2°F-2.1°C 52% 6.0 mph N9.7 kmh N 12.8 mph20.6 kmh 29.93 in1013.5 mb 0.00 in0.0 mm 0.00 in0.0 mm 0.00 in0.0 mm
01:20 PM 44.8°F7.1°C 27.3°F-2.6°C 50% 5.2 mph N8.4 kmh N 9.6 mph15.4 kmh 29.92 in1013.2 mb 0.00 in0.0 mm 0.00 in0.0 mm 0.00 in0.0 mm
01:30 PM 45.1°F7.3°C 28.1°F-2.2°C 51% 6.3 mph N10.1 kmh N 12.3 mph19.8 kmh 29.91 in1012.9 mb 0.00 in0.0 mm 0.00 in0.0 mm 0.00 in0.0 mm
01:40 PM 45.3°F7.4°C 27.3°F-2.6°C 49% 7.4 mph N11.9 kmh N 12.5 mph20.1 kmh 29.91 in1012.9 mb 0.00 in0.0 mm 0.00 in0.0 mm 0.00 in0.0 mm
01:50 PM 45.3°F7.4°C 26.3°F-3.2°C 47% 7.0 mph N11.3 kmh N 10.3 mph16.6 kmh 29.91 in1012.9 mb 0.00 in0.0 mm 0.00 in0.0 mm 0.00 in0.0 mm
02:00 PM 45.5°F7.5°C 26.9°F-2.8°C 48% 8.7 mph N14.0 kmh N 16.3 mph26.2 kmh 29.91 in1012.9 mb 0.00 in0.0 mm 0.00 in0.0 mm 0.00 in0.0 mm
02:10 PM 45.5°F7.5°C 26.9°F-2.8°C 48% 4.5 mph N7.2 kmh N 10.3 mph16.6 kmh 29.91 in1012.9 mb 0.00 in0.0 mm 0.00 in0.0 mm 0.00 in0.0 mm
02:20 PM 45.5°F7.5°C 26.4°F-3.1°C 47% 5.3 mph N8.5 kmh N 11.9 mph19.2 kmh 29.91 in1012.9 mb 0.00 in0.0 mm 0.00 in0.0 mm 0.00 in0.0 mm
02:30 PM 45.5°F7.5°C 25.9°F-3.4°C 46% 3.0 mph NNE4.8 kmh NNE 7.4 mph11.9 kmh 29.91 in1012.9 mb 0.00 in0.0 mm 0.00 in0.0 mm 0.00 in0.0 mm
02:40 PM 46.2°F7.9°C 27.1°F-2.7°C 47% 5.3 mph N8.5 kmh N 15.0 mph24.1 kmh 29.91 in1012.9 mb 0.00 in0.0 mm 0.00 in0.0 mm 0.00 in0.0 mm
02:50 PM 46.2°F7.9°C 27.6°F-2.4°C 48% 7.1 mph N11.4 kmh N 12.3 mph19.8 kmh 29.91 in1012.9 mb 0.00 in0.0 mm 0.00 in0.0 mm 0.00 in0.0 mm
03:00 PM 45.7°F7.6°C 27.6°F-2.4°C 49% 7.1 mph N11.4 kmh N 10.7 mph17.2 kmh 29.90 in1012.5 mb 0.00 in0.0 mm 0.00 in0.0 mm 0.00 in0.0 mm
03:10 PM 45.3°F7.4°C 27.3°F-2.6°C 49% 7.3 mph N11.7 kmh N 11.4 mph18.3 kmh 29.90 in1012.5 mb 0.00 in0.0 mm 0.00 in0.0 mm 0.00 in0.0 mm
03:20 PM 45.0°F7.2°C 26.9°F-2.8°C 49% 6.3 mph N10.1 kmh N 10.7 mph17.2 kmh 29.90 in1012.5 mb 0.00 in0.0 mm 0.00 in0.0 mm 0.00 in0.0 mm
03:30 PM 44.6°F7.0°C 27.1°F-2.7°C 50% 6.3 mph N10.1 kmh N 10.1 mph16.3 kmh 29.91 in1012.9 mb 0.00 in0.0 mm 0.00 in0.0 mm 0.00 in0.0 mm
03:40 PM 44.4°F6.9°C 26.9°F-2.8°C 50% 2.5 mph NE4.0 kmh NE 6.3 mph10.1 kmh 29.91 in1012.9 mb 0.00 in0.0 mm 0.00 in0.0 mm 0.00 in0.0 mm
03:50 PM 44.2°F6.8°C 26.8°F-2.9°C 50% 3.4 mph N5.5 kmh N 9.8 mph15.8 kmh 29.91 in1012.9 mb 0.00 in0.0 mm 0.00 in0.0 mm 0.00 in0.0 mm
04:00 PM 44.2°F6.8°C 26.8°F-2.9°C 50% 4.1 mph NNE6.6 kmh NNE 12.1 mph19.5 kmh 29.91 in1012.9 mb 0.00 in0.0 mm 0.00 in0.0 mm 0.00 in0.0 mm
04:10 PM 43.9°F6.6°C 26.4°F-3.1°C 50% 2.7 mph NE4.3 kmh NE 6.9 mph11.1 kmh 29.91 in1012.9 mb 0.00 in0.0 mm 0.00 in0.0 mm 0.00 in0.0 mm
04:20 PM 43.9°F6.6°C 26.4°F-3.1°C 50% 2.3 mph NE3.7 kmh NE 8.5 mph13.7 kmh 29.91 in1012.9 mb 0.00 in0.0 mm 0.00 in0.0 mm 0.00 in0.0 mm
04:30 PM 43.7°F6.5°C 26.3°F-3.2°C 50% 3.8 mph NNE6.1 kmh NNE 6.3 mph10.1 kmh 29.91 in1012.9 mb 0.00 in0.0 mm 0.00 in0.0 mm 0.00 in0.0 mm
04:40 PM 43.3°F6.3°C 26.4°F-3.1°C 51% 3.3 mph NNE5.3 kmh NNE 6.9 mph11.1 kmh 29.91 in1012.9 mb 0.00 in0.0 mm 0.00 in0.0 mm 0.00 in0.0 mm
04:50 PM 43.3°F6.3°C 26.4°F-3.1°C 51% 1.9 mph NNE3.1 kmh NNE 8.7 mph14.0 kmh 29.91 in1012.9 mb 0.00 in0.0 mm 0.00 in0.0 mm 0.00 in0.0 mm
05:00 PM 43.0°F6.1°C 26.1°F-3.3°C 51% 3.3 mph NNE5.3 kmh NNE 7.4 mph11.9 kmh 29.91 in1012.9 mb 0.00 in0.0 mm 0.00 in0.0 mm 0.00 in0.0 mm
05:10 PM 42.8°F6.0°C 26.4°F-3.1°C 52% 1.5 mph NNE2.4 kmh NNE 4.9 mph7.9 kmh 29.91 in1012.9 mb 0.00 in0.0 mm 0.00 in0.0 mm 0.00 in0.0 mm
05:20 PM 42.6°F5.9°C 26.7°F-2.9°C 53% 0.3 mph ENE0.5 kmh ENE 1.8 mph2.9 kmh 29.92 in1013.2 mb 0.00 in0.0 mm 0.00 in0.0 mm 0.00 in0.0 mm
05:30 PM 42.1°F5.6°C 26.6°F-3.0°C 54% 0.7 mph E1.1 kmh E 2.5 mph4.0 kmh 29.91 in1012.9 mb 0.00 in0.0 mm 0.00 in0.0 mm 0.00 in0.0 mm
05:40 PM 41.5°F5.3°C 26.6°F-3.0°C 55% 0.4 mph E0.6 kmh E 2.5 mph4.0 kmh 29.92 in1013.2 mb 0.00 in0.0 mm 0.00 in0.0 mm 0.00 in0.0 mm
05:50 PM 40.8°F4.9°C 26.3°F-3.2°C 56% 0.5 mph E0.8 kmh E 1.6 mph2.6 kmh 29.92 in1013.2 mb 0.00 in0.0 mm 0.00 in0.0 mm 0.00 in0.0 mm
06:00 PM 39.9°F4.4°C 25.9°F-3.4°C 57% 0.3 mph ENE0.5 kmh ENE 1.6 mph2.6 kmh 29.91 in1012.9 mb 0.00 in0.0 mm 0.00 in0.0 mm 0.00 in0.0 mm
06:10 PM 39.0°F3.9°C 25.5°F-3.6°C 58% 0.4 mph E0.6 kmh E 2.5 mph4.0 kmh 29.91 in1012.9 mb 0.00 in0.0 mm 0.00 in0.0 mm 0.00 in0.0 mm
06:20 PM 38.3°F3.5°C 25.2°F-3.8°C 59% 0.5 mph NE0.8 kmh NE 3.1 mph5.0 kmh 29.92 in1013.2 mb 0.00 in0.0 mm 0.00 in0.0 mm 0.00 in0.0 mm
06:30 PM 37.9°F3.3°C 25.3°F-3.7°C 60% 2.2 mph NNE3.5 kmh NNE 6.9 mph11.1 kmh 29.92 in1013.2 mb 0.00 in0.0 mm 0.00 in0.0 mm 0.00 in0.0 mm
06:40 PM 37.6°F3.1°C 25.3°F-3.7°C 61% 2.1 mph NE3.4 kmh NE 6.0 mph9.7 kmh 29.92 in1013.2 mb 0.00 in0.0 mm 0.00 in0.0 mm 0.00 in0.0 mm
06:50 PM 37.2°F2.9°C 25.0°F-3.9°C 61% 1.7 mph NE2.7 kmh NE 5.1 mph8.2 kmh 29.92 in1013.2 mb 0.00 in0.0 mm 0.00 in0.0 mm 0.00 in0.0 mm
07:00 PM 36.9°F2.7°C 25.0°F-3.9°C 62% 1.6 mph NE2.6 kmh NE 4.5 mph7.2 kmh 29.92 in1013.2 mb 0.00 in0.0 mm 0.00 in0.0 mm 0.00 in0.0 mm
07:10 PM 36.5°F2.5°C 25.1°F-3.8°C 63% 1.9 mph NNE3.1 kmh NNE 4.7 mph7.6 kmh 29.92 in1013.2 mb 0.00 in0.0 mm 0.00 in0.0 mm 0.00 in0.0 mm
07:20 PM 36.3°F2.4°C 25.3°F-3.7°C 64% 2.7 mph NNE4.3 kmh NNE 6.0 mph9.7 kmh 29.92 in1013.2 mb 0.00 in0.0 mm 0.00 in0.0 mm 0.00 in0.0 mm
07:30 PM 36.1°F2.3°C 25.5°F-3.6°C 65% 2.0 mph NE3.2 kmh NE 5.1 mph8.2 kmh 29.92 in1013.2 mb 0.00 in0.0 mm 0.00 in0.0 mm 0.00 in0.0 mm
07:40 PM 36.0°F2.2°C 25.7°F-3.5°C 66% 2.0 mph NE3.2 kmh NE 5.1 mph8.2 kmh 29.92 in1013.2 mb 0.00 in0.0 mm 0.00 in0.0 mm 0.00 in0.0 mm
07:50 PM 35.8°F2.1°C 25.5°F-3.6°C 66% 1.6 mph NE2.6 kmh NE 3.8 mph6.1 kmh 29.92 in1013.2 mb 0.00 in0.0 mm 0.00 in0.0 mm 0.00 in0.0 mm
08:00 PM 35.8°F2.1°C 25.5°F-3.6°C 66% 1.4 mph NE2.3 kmh NE 4.0 mph6.4 kmh 29.93 in1013.5 mb 0.00 in0.0 mm 0.00 in0.0 mm 0.00 in0.0 mm
08:10 PM 35.8°F2.1°C 25.5°F-3.6°C 66% 2.1 mph NNE3.4 kmh NNE 4.3 mph6.9 kmh 29.93 in1013.5 mb 0.00 in0.0 mm 0.00 in0.0 mm 0.00 in0.0 mm
08:20 PM 35.6°F2.0°C 26.1°F-3.3°C 68% 3.1 mph NNE5.0 kmh NNE 7.2 mph11.6 kmh 29.93 in1013.5 mb 0.00 in0.0 mm 0.00 in0.0 mm 0.00 in0.0 mm
08:30 PM 35.4°F1.9°C 25.9°F-3.4°C 68% 1.9 mph NE3.1 kmh NE 5.4 mph8.7 kmh 29.93 in1013.5 mb 0.00 in0.0 mm 0.00 in0.0 mm 0.00 in0.0 mm
08:40 PM 35.4°F1.9°C 25.9°F-3.4°C 68% 2.4 mph NE3.9 kmh NE 5.6 mph9.0 kmh 29.93 in1013.5 mb 0.00 in0.0 mm 0.00 in0.0 mm 0.00 in0.0 mm
08:50 PM 35.4°F1.9°C 25.9°F-3.4°C 68% 2.1 mph NE3.4 kmh NE 5.4 mph8.7 kmh 29.94 in1013.9 mb 0.00 in0.0 mm 0.00 in0.0 mm 0.00 in0.0 mm
09:00 PM 35.4°F1.9°C 25.9°F-3.4°C 68% 2.1 mph NE3.4 kmh NE 5.1 mph8.2 kmh 29.94 in1013.9 mb 0.00 in0.0 mm 0.00 in0.0 mm 0.00 in0.0 mm
09:10 PM 35.6°F2.0°C 26.4°F-3.1°C 69% 2.4 mph NE3.9 kmh NE 6.9 mph11.1 kmh 29.94 in1013.9 mb 0.00 in0.0 mm 0.00 in0.0 mm 0.00 in0.0 mm
09:20 PM 35.8°F2.1°C 26.6°F-3.0°C 69% 3.0 mph NE4.8 kmh NE 6.9 mph11.1 kmh 29.94 in1013.9 mb 0.00 in0.0 mm 0.00 in0.0 mm 0.00 in0.0 mm
09:30 PM 35.8°F2.1°C 26.6°F-3.0°C 69% 3.4 mph NNE5.5 kmh NNE 7.2 mph11.6 kmh 29.94 in1013.9 mb 0.00 in0.0 mm 0.00 in0.0 mm 0.00 in0.0 mm
09:40 PM 35.8°F2.1°C 26.6°F-3.0°C 69% 2.4 mph NE3.9 kmh NE 6.3 mph10.1 kmh 29.94 in1013.9 mb 0.00 in0.0 mm 0.00 in0.0 mm 0.00 in0.0 mm
09:50 PM 35.8°F2.1°C 26.9°F-2.8°C 70% 2.1 mph NE3.4 kmh NE 6.9 mph11.1 kmh 29.94 in1013.9 mb 0.00 in0.0 mm 0.00 in0.0 mm 0.00 in0.0 mm
10:00 PM 35.6°F2.0°C 26.8°F-2.9°C 70% 2.9 mph NE4.7 kmh NE 6.7 mph10.8 kmh 29.94 in1013.9 mb 0.00 in0.0 mm 0.00 in0.0 mm 0.00 in0.0 mm
10:10 PM 35.6°F2.0°C 26.8°F-2.9°C 70% 2.7 mph NE4.3 kmh NE 6.5 mph10.5 kmh 29.94 in1013.9 mb 0.00 in0.0 mm 0.00 in0.0 mm 0.00 in0.0 mm
10:20 PM 35.6°F2.0°C 27.1°F-2.7°C 71% 3.5 mph NE5.6 kmh NE 7.6 mph12.2 kmh 29.93 in1013.5 mb 0.00 in0.0 mm 0.00 in0.0 mm 0.00 in0.0 mm
10:30 PM 35.4°F1.9°C 26.9°F-2.8°C 71% 3.2 mph NE5.1 kmh NE 6.9 mph11.1 kmh 29.94 in1013.9 mb 0.00 in0.0 mm 0.00 in0.0 mm 0.00 in0.0 mm
10:40 PM 35.4°F1.9°C 26.9°F-2.8°C 71% 2.4 mph E3.9 kmh E 7.4 mph11.9 kmh 29.93 in1013.5 mb 0.00 in0.0 mm 0.00 in0.0 mm 0.00 in0.0 mm
10:50 PM 35.4°F1.9°C 26.9°F-2.8°C 71% 2.2 mph E3.5 kmh E 5.1 mph8.2 kmh 29.93 in1013.5 mb 0.00 in0.0 mm 0.00 in0.0 mm 0.00 in0.0 mm
11:00 PM 35.4°F1.9°C 26.9°F-2.8°C 71% 3.2 mph NE5.1 kmh NE 8.9 mph14.3 kmh 29.93 in1013.5 mb 0.00 in0.0 mm 0.00 in0.0 mm 0.00 in0.0 mm
11:10 PM 35.4°F1.9°C 27.3°F-2.6°C 72% 2.8 mph ENE4.5 kmh ENE 8.5 mph13.7 kmh 29.93 in1013.5 mb 0.00 in0.0 mm 0.00 in0.0 mm 0.00 in0.0 mm
11:20 PM 35.4°F1.9°C 27.3°F-2.6°C 72% 2.7 mph E4.3 kmh E 6.5 mph10.5 kmh 29.93 in1013.5 mb 0.00 in0.0 mm 0.00 in0.0 mm 0.00 in0.0 mm
11:30 PM 35.4°F1.9°C 27.3°F-2.6°C 72% 2.7 mph ENE4.3 kmh ENE 7.2 mph11.6 kmh 29.93 in1013.5 mb 0.00 in0.0 mm 0.00 in0.0 mm 0.00 in0.0 mm
11:40 PM 35.2°F1.8°C 27.1°F-2.7°C 72% 3.4 mph ENE5.5 kmh ENE 6.9 mph11.1 kmh 29.93 in1013.5 mb 0.00 in0.0 mm 0.00 in0.0 mm 0.00 in0.0 mm
11:50 PM 35.2°F1.8°C 27.4°F-2.6°C 73% 3.1 mph ENE5.0 kmh ENE 6.7 mph10.8 kmh 29.93 in1013.5 mb 0.00 in0.0 mm 0.00 in0.0 mm 0.00 in0.0 mm